ホニアラ の空港の天気 - METARとTAF

ホニアラ国際空港 ( AGGH / HIR ) - ソロモン諸島 ガダルカナル島ホニアラ
飛行場実況気象(Metar)
観測時間05/31 04:00 SBT (05/30 17:00 UTC)
風向・風速静穏 0m/s
視程10km以上
天気現象
少しの雲 雲底高度 430m
気温23℃
湿度100%
気圧1011hPa
METARAGGH 301700Z 00000KT 9999 FEW014 23/23 Q1011
過去の天気等 Google飛行場航空写真 Wunderground天気予報

過去48時間のMETAR

飛行場予報(TAF)
発表時間: 5/31 04:10 SBT (5/30 17:10 UTC)
予報対象時間: 31日5時 SBT ~ 1日5時 SBT
風向・風速北東 5m/s
視程10km以上
全天の4割程度の雲 雲底高度 550m
TAF AGGH 301710Z 3018/3118 05010KT 9999 SCT018
PROB40 INTER 3001/3106 5000 TSSH BKN015 FEW016CB T 24 27 30 31 Q 1011 1013 1013 1011